Terminal Aerodrome Forecast
Issued by NWS

Home | Current Version | Previous Version | Text Only | Print | Product List | Glossary On
Versions: 1 2 3 4 5 6 7 8 9 10 11 12 13 14 15 16 17 18 19
000
FTUS43 KDTX 171731
TAFDET
TAF
KDET 171731Z 1718/1818 24008KT 1SM BR OVC004
     FM171900 24013G20KT 5SM BR OVC006
     FM172300 24010KT 5SM -DZ BR SCT005 OVC008
     FM180400 25008KT 3SM -RA BR OVC006
     FM181400 26006KT 5SM BR OVC015=

USA.gov is the U.S. government's official web portal to all federal, state and local government web resources and services.